Time;durP1;ratioP1;P1;durP2;ratioP2;P2;SDS_P1;SDS_P2;PMS_P1;PMS_P2;Temp;Humidity;BMP_temperature;BMP_pressure;BME280_temperature;BME280_humidity;BME280_pressure;Samples;Min_cycle;Max_cycle;Signal;HPM_P1;HPM_P2
2022/08/28 09:10:14;;;;;;;1.45;1.17;;;20.60;69.20;;;;;;2114842;27;20396;-90
2022/08/28 09:11:33;;;;;;;2.97;0.73;;;20.50;67.90;;;;;;2090517;28;20296;-90
2022/08/28 09:12:50;;;;;;;1.92;0.80;;;20.50;67.90;;;;;;2080358;28;20255;-89
2022/08/28 09:13:50;;;;;;;2.72;0.73;;;20.40;66.90;;;;;;2096111;28;20272;-90
2022/08/28 09:15:08;;;;;;;2.17;0.90;;;20.40;66.80;;;;;;2081501;28;20306;-88
2022/08/28 09:16:26;;;;;;;1.38;0.70;;;20.40;66.80;;;;;;2093682;28;20025;-88
2022/08/28 09:17:33;;;;;;;1.55;0.63;;;20.40;66.70;;;;;;2094661;28;20257;-89
2022/08/28 09:18:34;;;;;;;3.08;0.90;;;20.40;67.00;;;;;;2097822;28;20245;-88
2022/08/28 09:19:35;;;;;;;1.58;0.80;;;20.40;67.20;;;;;;2087749;28;20349;-88
2022/08/28 09:20:36;;;;;;;2.88;0.65;;;20.40;66.90;;;;;;2086880;28;20052;-88
2022/08/28 09:21:42;;;;;;;2.23;0.70;;;20.40;66.80;;;;;;2089794;28;20021;-88
2022/08/28 09:22:45;;;;;;;1.75;0.88;;;20.40;66.60;;;;;;2088846;28;20025;-88
2022/08/28 09:23:46;;;;;;;1.02;0.68;;;20.40;66.70;;;;;;2090689;28;20297;-88
2022/08/28 09:24:48;;;;;;;1.38;0.60;;;20.40;66.30;;;;;;2089715;28;20273;-88
2022/08/28 09:25:51;;;;;;;2.90;0.80;;;20.40;66.00;;;;;;2096441;28;20029;-88
2022/08/28 09:26:55;;;;;;;2.65;0.80;;;20.40;65.60;;;;;;2089102;28;20763;-88
2022/08/28 09:28:06;;;;;;;0.80;0.70;;;20.50;65.60;;;;;;2090237;28;20373;-88
2022/08/28 09:29:15;;;;;;;1.55;0.80;;;20.50;65.30;;;;;;2095491;28;20258;-88
2022/08/28 09:30:29;;;;;;;1.98;0.75;;;20.50;65.20;;;;;;2094952;28;20326;-88
2022/08/28 09:31:37;;;;;;;1.15;0.70;;;20.50;65.00;;;;;;2100339;28;20272;-87
2022/08/28 09:33:00;;;;;;;2.03;0.55;;;20.50;65.70;;;;;;2100665;28;20707;-87
2022/08/28 09:34:28;;;;;;;0.85;0.70;;;20.50;64.50;;;;;;2097747;28;20603;-92
2022/08/28 09:35:31;;;;;;;5.95;0.70;;;20.60;64.40;;;;;;2084139;28;20444;-89
2022/08/28 09:36:35;;;;;;;2.63;0.70;;;20.60;64.00;;;;;;2089906;28;20270;-88
2022/08/28 09:37:36;;;;;;;0.90;0.60;;;20.50;63.90;;;;;;2096236;28;20742;-89
2022/08/28 09:38:37;;;;;;;3.22;0.63;;;20.50;64.00;;;;;;2096889;28;20712;-89
2022/08/28 09:39:39;;;;;;;0.75;0.60;;;20.50;64.10;;;;;;2106086;28;20028;-88
2022/08/28 09:43:43;;;;;;;2.53;0.80;;;20.50;64.10;;;;;;2103180;28;20279;-91
2022/08/28 09:45:02;;;;;;;2.58;0.80;;;20.50;64.10;;;;;;2098151;28;20304;-88
2022/08/28 09:46:19;;;;;;;2.50;0.90;;;20.50;64.40;;;;;;2103649;28;20610;-89
2022/08/28 09:47:56;;;;;;;3.00;1.20;;;20.50;64.50;;;;;;2098268;28;20278;-89
2022/08/28 09:49:10;;;;;;;2.20;0.82;;;20.60;64.50;;;;;;2083259;28;20262;-89
2022/08/28 09:50:27;;;;;;;1.00;0.82;;;20.60;64.60;;;;;;2093034;28;20331;-89
2022/08/28 09:51:29;;;;;;;5.15;0.80;;;20.60;64.30;;;;;;2091482;28;20242;-88
2022/08/28 09:52:29;;;;;;;;;;;20.60;64.50;;;;;;2089754;28;20317;-89
2022/08/28 09:53:56;;;;;;;3.00;0.95;;;20.60;64.40;;;;;;2095902;28;19962;-89
2022/08/28 09:54:56;;;;;;;0.75;0.50;;;20.60;63.80;;;;;;2087638;28;20094;-88
2022/08/28 09:56:18;;;;;;;1.48;0.75;;;20.60;63.00;;;;;;2088449;28;20243;-88
2022/08/28 09:57:19;;;;;;;2.70;0.75;;;20.60;62.80;;;;;;2095255;28;20056;-89
2022/08/28 09:58:21;;;;;;;1.45;0.60;;;20.70;62.70;;;;;;2089395;28;20266;-88
2022/08/28 09:59:25;;;;;;;1.40;0.52;;;20.70;62.70;;;;;;2089434;28;20018;-89
2022/08/28 10:00:33;;;;;;;2.60;0.90;;;20.70;62.70;;;;;;2090309;28;20324;-88
2022/08/28 10:01:52;;;;;;;4.03;0.80;;;20.70;62.80;;;;;;2090332;28;20349;-88
2022/08/28 10:07:52;;;;;;;3.15;0.90;;;20.80;61.80;;;;;;2109659;28;20699;-88
2022/08/28 10:09:13;;;;;;;0.95;0.68;;;20.70;61.50;;;;;;2096871;28;20353;-88
2022/08/28 10:10:42;;;;;;;1.70;0.80;;;20.70;60.60;;;;;;2078146;28;20278;-88
2022/08/28 10:11:47;;;;;;;1.80;0.73;;;20.70;61.00;;;;;;2097102;28;20271;-88
2022/08/28 10:15:56;;;;;;;2.25;0.93;;;20.80;61.10;;;;;;2114724;28;20220;-89
2022/08/28 10:17:00;;;;;;;1.13;0.57;;;20.80;61.20;;;;;;2064576;28;20334;-89
2022/08/28 10:18:34;;;;;;;1.50;1.00;;;20.80;60.90;;;;;;2057134;28;20261;-89
2022/08/28 10:19:39;;;;;;;0.90;0.70;;;20.80;61.00;;;;;;2055507;28;20270;-90
2022/08/28 10:20:59;;;;;;;1.48;0.70;;;20.80;60.90;;;;;;2048862;28;20702;-89
2022/08/28 10:22:35;;;;;;;2.35;1.00;;;20.80;61.10;;;;;;2062729;28;20261;-90
2022/08/28 10:24:11;;;;;;;2.13;0.80;;;20.80;60.80;;;;;;2079920;28;20303;-90
2022/08/28 10:25:42;;;;;;;2.72;0.73;;;20.80;60.80;;;;;;2060006;28;20260;-89
2022/08/28 10:27:08;;;;;;;1.27;0.50;;;20.90;61.00;;;;;;2075563;28;20339;-87
2022/08/28 10:28:33;;;;;;;1.73;0.50;;;20.90;61.00;;;;;;2095168;28;20250;-88
2022/08/28 10:29:51;;;;;;;1.92;0.52;;;20.90;60.60;;;;;;2086017;28;20278;-88
2022/08/28 10:31:28;;;;;;;0.75;0.57;;;20.90;60.40;;;;;;2086072;28;20297;-88
2022/08/28 10:32:40;;;;;;;1.77;0.65;;;20.90;60.30;;;;;;2077263;28;20663;-89
2022/08/28 10:34:12;;;;;;;1.75;0.60;;;20.90;60.20;;;;;;2078550;28;20302;-88
2022/08/28 10:35:21;;;;;;;0.90;0.70;;;21.00;60.40;;;;;;2084853;28;20041;-89
2022/08/28 10:36:28;;;;;;;1.88;0.77;;;21.00;60.60;;;;;;2083244;28;20273;-89
2022/08/28 10:38:02;;;;;;;1.17;0.77;;;21.00;60.90;;;;;;2091682;28;20692;-88
2022/08/28 10:39:37;;;;;;;2.13;0.73;;;21.00;61.00;;;;;;2076753;28;20716;-88
2022/08/28 10:40:45;;;;;;;5.28;0.93;;;21.00;61.30;;;;;;2079874;28;20260;-88
2022/08/28 10:41:55;;;;;;;1.27;0.70;;;21.00;61.70;;;;;;2085521;28;20251;-89
2022/08/28 10:43:04;;;;;;;2.15;0.70;;;21.00;61.70;;;;;;2085803;28;20624;-89
2022/08/28 10:44:08;;;;;;;1.80;0.75;;;21.00;61.60;;;;;;2076573;28;20255;-88
2022/08/28 10:45:14;;;;;;;1.60;0.90;;;21.10;61.40;;;;;;2079240;28;20318;-86
2022/08/28 10:46:29;;;;;;;1.30;0.60;;;21.10;61.10;;;;;;2072457;28;20310;-87
2022/08/28 10:47:33;;;;;;;0.90;0.60;;;21.10;60.80;;;;;;2079698;28;20263;-86
2022/08/28 10:48:45;;;;;;;2.28;0.70;;;21.10;60.90;;;;;;2091714;28;20261;-86
2022/08/28 10:49:49;;;;;;;1.23;0.60;;;21.10;60.90;;;;;;2091792;28;20277;-86
2022/08/28 10:51:04;;;;;;;1.80;0.70;;;21.10;61.20;;;;;;2092134;28;20304;-87
2022/08/28 10:52:19;;;;;;;3.63;0.80;;;21.10;61.00;;;;;;2091702;28;20374;-86
2022/08/28 10:53:29;;;;;;;2.97;0.82;;;21.20;60.80;;;;;;2085257;28;20254;-87
2022/08/28 10:54:45;;;;;;;2.22;0.80;;;21.10;60.50;;;;;;2086156;28;20251;-87
2022/08/28 10:55:58;;;;;;;0.80;0.50;;;21.20;61.40;;;;;;2092755;28;20258;-86
2022/08/28 10:57:06;;;;;;;0.90;0.60;;;21.20;60.80;;;;;;2078855;28;20267;-86
2022/08/28 10:58:10;;;;;;;1.15;0.70;;;21.10;60.30;;;;;;2088525;28;20254;-87
2022/08/28 10:59:11;;;;;;;1.02;0.60;;;21.20;59.60;;;;;;2098453;28;20336;-87
2022/08/28 11:00:19;;;;;;;1.13;0.80;;;21.20;59.50;;;;;;2091651;28;20670;-87
2022/08/28 11:01:33;;;;;;;2.55;0.80;;;21.20;59.60;;;;;;2088948;28;20068;-86
2022/08/28 11:02:35;;;;;;;0.85;0.47;;;21.30;59.00;;;;;;2084362;28;20259;-86
2022/08/28 11:03:45;;;;;;;0.63;0.43;;;21.20;58.70;;;;;;2097794;28;20293;-87
2022/08/28 11:04:46;;;;;;;1.80;0.70;;;21.20;58.60;;;;;;2088602;28;20267;-87
2022/08/28 11:05:53;;;;;;;1.95;0.80;;;21.30;58.90;;;;;;2091582;28;20356;-86
2022/08/28 11:07:07;;;;;;;1.65;0.80;;;21.30;59.20;;;;;;2089735;28;20119;-86
2022/08/28 11:08:23;;;;;;;2.03;0.80;;;21.30;59.20;;;;;;2081389;28;20307;-86
2022/08/28 11:09:47;;;;;;;1.40;0.70;;;21.40;59.30;;;;;;2088537;28;20115;-86
2022/08/28 11:10:52;;;;;;;2.53;0.50;;;21.40;59.60;;;;;;2094843;28;20283;-86
2022/08/28 11:11:59;;;;;;;1.27;0.50;;;21.40;60.00;;;;;;2097016;28;20297;-87
2022/08/28 11:13:01;;;;;;;1.05;0.47;;;21.40;61.20;;;;;;2108367;28;20268;-87
2022/08/28 11:14:02;;;;;;;1.10;0.47;;;21.30;59.80;;;;;;2091868;28;20277;-87
2022/08/28 11:15:45;;;;;;;2.13;0.47;;;21.30;60.30;;;;;;2092322;28;20851;-86
2022/08/28 11:16:48;;;;;;;2.85;0.70;;;21.30;59.40;;;;;;2071128;28;20026;-87
2022/08/28 11:17:50;;;;;;;3.20;0.50;;;21.30;58.60;;;;;;2065774;28;20026;-87
2022/08/28 11:19:03;;;;;;;;;;;21.30;58.40;;;;;;2059259;28;20272;-87
2022/08/28 11:20:09;;;;;;;1.00;0.60;;;21.40;58.40;;;;;;2063877;28;19906;-88
2022/08/28 11:21:25;;;;;;;1.40;0.52;;;21.40;58.50;;;;;;2074716;28;20274;-88
2022/08/28 11:22:33;;;;;;;1.05;0.80;;;21.40;57.70;;;;;;2091166;28;20343;-87
2022/08/28 11:24:07;;;;;;;2.85;0.60;;;21.40;58.30;;;;;;2092290;28;20261;-87
2022/08/28 11:25:40;;;;;;;3.70;0.73;;;21.40;59.50;;;;;;2090582;28;20269;-87
2022/08/28 11:27:05;;;;;;;1.05;0.43;;;21.40;58.40;;;;;;2102078;28;20253;-88
2022/08/28 11:28:17;;;;;;;2.05;0.50;;;21.40;59.00;;;;;;2101406;28;20489;-86
2022/08/28 11:29:55;;;;;;;0.65;0.40;;;21.40;59.30;;;;;;2101487;28;20261;-88
2022/08/28 11:31:04;;;;;;;0.80;0.60;;;21.40;57.70;;;;;;2101724;28;20112;-86
2022/08/28 11:32:29;;;;;;;1.38;0.70;;;21.40;57.30;;;;;;2094184;28;20268;-87
2022/08/28 11:33:43;;;;;;;0.70;0.40;;;21.40;56.80;;;;;;2093647;28;20584;-86
2022/08/28 11:35:03;;;;;;;0.63;0.45;;;21.50;56.60;;;;;;2097755;28;20262;-87
2022/08/28 11:36:25;;;;;;;1.10;0.77;;;21.50;56.20;;;;;;2099060;28;20262;-88
2022/08/28 11:37:40;;;;;;;0.47;0.40;;;21.50;55.70;;;;;;2101353;28;20260;-88
2022/08/28 11:38:40;;;;;;;0.40;0.40;;;21.50;55.10;;;;;;2101370;28;20067;-87
2022/08/28 11:39:41;;;;;;;0.17;0.17;;;21.50;54.50;;;;;;2099372;28;20276;-87
2022/08/28 11:40:52;;;;;;;0.90;0.40;;;21.60;54.50;;;;;;2092467;28;20162;-86
2022/08/28 11:42:08;;;;;;;1.85;0.77;;;21.50;55.10;;;;;;2098293;28;20032;-86
2022/08/28 11:43:15;;;;;;;0.40;0.40;;;21.50;55.40;;;;;;2107651;28;20339;-87
2022/08/28 11:44:36;;;;;;;2.25;0.40;;;21.50;55.40;;;;;;2107729;28;20343;-86
2022/08/28 11:45:46;;;;;;;1.67;0.50;;;21.50;55.60;;;;;;2091135;28;20265;-86
2022/08/28 11:46:52;;;;;;;0.50;0.40;;;21.50;55.00;;;;;;2090052;28;20277;-87
2022/08/28 11:47:55;;;;;;;1.00;0.50;;;21.50;54.80;;;;;;2091027;28;20746;-88
2022/08/28 11:49:01;;;;;;;0.70;0.60;;;21.60;55.00;;;;;;2089225;28;20265;-87
2022/08/28 11:50:16;;;;;;;1.95;0.70;;;21.60;54.70;;;;;;2080231;28;20298;-88
2022/08/28 11:51:16;;;;;;;1.48;0.68;;;21.60;54.70;;;;;;2097013;28;20262;-88
2022/08/28 11:53:01;;;;;;;0.70;0.50;;;21.70;55.40;;;;;;2091251;28;20250;-87
2022/08/28 11:54:17;;;;;;;1.27;0.70;;;21.60;55.90;;;;;;2087311;28;20036;-87
2022/08/28 11:55:36;;;;;;;0.95;0.40;;;21.60;56.80;;;;;;2095073;28;20258;-87
2022/08/28 11:56:58;;;;;;;1.25;0.60;;;21.50;55.80;;;;;;2095673;28;20727;-87
2022/08/28 11:58:25;;;;;;;2.88;0.75;;;21.60;54.90;;;;;;2096197;28;20273;-86
2022/08/28 12:00:16;;;;;;;1.77;0.70;;;21.60;54.70;;;;;;2088220;28;20119;-87
2022/08/28 12:01:34;;;;;;;0.60;0.50;;;21.60;54.60;;;;;;2064963;28;20310;-86
2022/08/28 12:02:35;;;;;;;0.80;0.50;;;21.70;54.60;;;;;;2089449;28;20277;-86
2022/08/28 12:03:59;;;;;;;3.33;0.60;;;21.70;54.30;;;;;;2086098;28;20294;-88
2022/08/28 12:05:01;;;;;;;0.88;0.77;;;21.70;54.30;;;;;;2092484;28;20028;-88
2022/08/28 12:06:03;;;;;;;0.63;0.43;;;21.70;54.30;;;;;;2085945;28;20254;-86
2022/08/28 12:07:13;;;;;;;1.48;0.47;;;21.70;54.40;;;;;;2095467;28;20257;-86
2022/08/28 12:08:52;;;;;;;1.17;0.50;;;21.70;54.80;;;;;;2107402;28;20336;-86
2022/08/28 12:09:53;;;;;;;1.20;0.50;;;21.70;54.80;;;;;;2101314;28;20072;-86
2022/08/28 12:10:56;;;;;;;1.88;0.77;;;21.70;54.20;;;;;;2090816;28;20316;-87
2022/08/28 12:12:00;;;;;;;1.38;1.05;;;21.70;54.40;;;;;;2107179;28;20023;-87
2022/08/28 12:13:07;;;;;;;1.63;0.63;;;21.70;55.00;;;;;;2088748;28;20269;-86
2022/08/28 12:14:37;;;;;;;0.90;0.47;;;21.70;55.70;;;;;;2100046;28;20116;-86
2022/08/28 12:15:40;;;;;;;0.63;0.40;;;21.70;55.70;;;;;;2097398;28;20273;-87
2022/08/28 12:17:15;;;;;;;2.00;0.65;;;21.70;56.10;;;;;;2097348;28;20258;-86
2022/08/28 12:18:37;;;;;;;3.65;0.50;;;21.60;55.30;;;;;;2095286;28;20016;-87
2022/08/28 12:19:42;;;;;;;1.65;0.47;;;21.70;54.30;;;;;;2091074;28;20306;-86
2022/08/28 12:21:01;;;;;;;0.75;0.60;;;21.70;54.30;;;;;;2100358;28;20024;-87
2022/08/28 12:22:09;;;;;;;1.00;0.55;;;21.70;54.40;;;;;;2094705;28;20301;-86
2022/08/28 12:23:33;;;;;;;2.75;0.60;;;21.70;54.10;;;;;;2099504;28;20253;-87
2022/08/28 12:24:35;;;;;;;0.40;0.40;;;21.80;54.00;;;;;;2104855;28;20269;-88
2022/08/28 12:25:42;;;;;;;;;;;21.70;54.20;;;;;;2091011;28;20021;-87
2022/08/28 12:26:48;;;;;;;0.60;0.50;;;21.70;55.20;;;;;;2094946;28;19908;-86
2022/08/28 12:27:51;;;;;;;0.77;0.47;;;21.70;54.30;;;;;;2083896;28;20319;-88
2022/08/28 12:28:56;;;;;;;0.98;0.60;;;21.80;53.60;;;;;;2092027;28;20257;-87
2022/08/28 12:29:59;;;;;;;2.97;0.65;;;21.80;53.80;;;;;;2096896;28;20134;-87
2022/08/28 12:31:03;;;;;;;1.95;0.73;;;21.80;53.50;;;;;;2099229;28;20013;-87
2022/08/28 12:32:10;;;;;;;1.48;0.95;;;21.80;53.30;;;;;;2106117;28;20028;-87
2022/08/28 12:33:41;;;;;;;1.33;0.60;;;21.80;53.70;;;;;;2098909;28;20043;-87
2022/08/28 12:34:57;;;;;;;5.10;0.70;;;21.80;53.50;;;;;;2077922;28;20399;-87
2022/08/28 12:36:01;;;;;;;1.52;0.50;;;21.80;53.40;;;;;;2099649;28;20025;-88
2022/08/28 12:37:06;;;;;;;0.75;0.40;;;21.80;53.60;;;;;;2088511;28;20048;-87
2022/08/28 12:38:08;;;;;;;1.30;0.60;;;21.80;53.50;;;;;;2083457;28;20075;-88
2022/08/28 12:39:17;;;;;;;1.27;0.45;;;21.80;54.00;;;;;;2090812;28;20368;-87
2022/08/28 12:40:28;;;;;;;1.48;0.50;;;21.80;54.40;;;;;;2091282;28;20159;-87
2022/08/28 12:41:30;;;;;;;0.95;0.55;;;21.80;54.60;;;;;;2085107;28;20771;-87
2022/08/28 12:42:33;;;;;;;3.28;0.70;;;21.80;54.50;;;;;;2079102;28;20029;-87
2022/08/28 12:43:39;;;;;;;2.33;0.45;;;21.80;53.70;;;;;;2085441;28;20033;-87
2022/08/28 12:44:40;;;;;;;2.35;0.90;;;21.80;53.80;;;;;;2083234;28;20090;-88
2022/08/28 12:46:03;;;;;;;2.27;0.63;;;21.80;53.70;;;;;;2090180;28;20074;-88
2022/08/28 12:47:04;;;;;;;0.88;0.50;;;21.90;53.80;;;;;;2098873;28;20020;-88
2022/08/28 12:48:44;;;;;;;2.30;0.60;;;21.90;53.50;;;;;;2086763;28;20092;-87
2022/08/28 12:49:46;;;;;;;0.50;0.40;;;21.90;53.10;;;;;;2103550;28;20028;-87
2022/08/28 12:50:47;;;;;;;0.93;0.50;;;21.90;53.50;;;;;;2104613;28;20438;-87
2022/08/28 12:51:48;;;;;;;1.83;0.60;;;21.90;53.50;;;;;;2097178;28;20497;-87
2022/08/28 12:52:51;;;;;;;4.73;0.60;;;21.90;53.70;;;;;;2100327;28;20103;-87
2022/08/28 12:53:54;;;;;;;0.65;0.40;;;21.90;53.30;;;;;;2099742;28;20025;-87
2022/08/28 12:54:57;;;;;;;1.05;0.60;;;21.90;53.70;;;;;;2093142;28;20269;-87
2022/08/28 12:55:57;;;;;;;0.68;0.40;;;21.90;53.20;;;;;;2087517;28;20059;-86
2022/08/28 12:56:58;;;;;;;1.20;0.73;;;21.90;53.10;;;;;;2092355;28;20028;-87
2022/08/28 12:57:59;;;;;;;0.90;0.60;;;21.90;52.80;;;;;;2080597;28;20510;-86
2022/08/28 12:59:21;;;;;;;0.60;0.60;;;22.00;53.00;;;;;;2087775;28;20063;-87
2022/08/28 13:00:31;;;;;;;1.83;0.43;;;21.90;52.80;;;;;;2095848;28;20095;-87
2022/08/28 13:01:33;;;;;;;1.08;0.60;;;21.90;53.10;;;;;;2086807;28;20115;-86
2022/08/28 13:02:34;;;;;;;3.20;0.90;;;21.90;52.90;;;;;;2081668;28;20029;-87
2022/08/28 13:03:56;;;;;;;1.13;0.50;;;22.00;53.10;;;;;;2081973;28;20456;-87
2022/08/28 13:05:09;;;;;;;2.67;0.45;;;22.00;53.70;;;;;;2094851;28;20036;-86
2022/08/28 13:06:10;;;;;;;2.60;0.50;;;22.00;53.40;;;;;;2091863;28;20116;-86
2022/08/28 13:07:13;;;;;;;2.40;0.60;;;22.00;52.80;;;;;;2099501;28;20462;-86
2022/08/28 13:08:20;;;;;;;0.70;0.50;;;22.00;52.40;;;;;;2096478;28;20025;-87
2022/08/28 13:09:25;;;;;;;2.00;0.50;;;22.00;52.60;;;;;;2081005;28;20025;-86
2022/08/28 13:10:48;;;;;;;0.50;0.30;;;22.00;52.80;;;;;;2090282;28;20111;-87
2022/08/28 13:11:52;;;;;;;1.38;0.50;;;22.00;52.90;;;;;;2099280;28;20016;-86
2022/08/28 13:12:59;;;;;;;1.87;0.67;;;22.00;53.00;;;;;;2096491;28;20020;-87
2022/08/28 13:14:00;;;;;;;1.60;0.60;;;22.00;53.10;;;;;;2101788;28;20250;-86
2022/08/28 13:15:02;;;;;;;1.13;0.50;;;22.00;52.80;;;;;;2086894;28;20030;-87
2022/08/28 13:16:08;;;;;;;0.50;0.32;;;22.00;52.90;;;;;;2096283;28;20024;-86
2022/08/28 13:17:11;;;;;;;1.48;0.50;;;22.00;52.00;;;;;;2097596;28;20123;-87
2022/08/28 13:18:36;;;;;;;0.77;0.43;;;22.00;52.20;;;;;;2090836;28;20447;-86
2022/08/28 13:19:37;;;;;;;1.15;0.70;;;22.00;51.80;;;;;;2090918;28;20032;-87
2022/08/28 13:20:38;;;;;;;1.33;0.65;;;22.00;51.40;;;;;;2078228;28;20094;-87
2022/08/28 13:21:59;;;;;;;1.05;0.60;;;22.00;51.30;;;;;;2088118;28;20037;-85
2022/08/28 13:23:00;;;;;;;0.60;0.50;;;22.00;51.60;;;;;;2086431;28;20047;-87
2022/08/28 13:24:21;;;;;;;1.77;0.50;;;22.00;51.50;;;;;;2089075;28;20455;-87
2022/08/28 13:25:25;;;;;;;1.05;0.50;;;22.00;51.70;;;;;;2097082;28;20036;-87
2022/08/28 13:26:31;;;;;;;0.40;0.40;;;22.10;51.70;;;;;;2095690;28;20021;-87
2022/08/28 13:27:33;;;;;;;1.98;0.60;;;22.10;51.70;;;;;;2092339;28;20379;-86
2022/08/28 13:28:42;;;;;;;1.33;0.50;;;22.00;51.80;;;;;;2084453;28;20034;-87
2022/08/28 13:30:18;;;;;;;1.38;0.57;;;22.00;52.80;;;;;;2087956;28;20037;-86
2022/08/28 13:31:32;;;;;;;0.93;0.60;;;22.10;52.50;;;;;;2076670;28;20040;-87
2022/08/28 13:32:37;;;;;;;0.30;0.30;;;22.10;52.60;;;;;;2099174;28;20341;-87
2022/08/28 13:33:38;;;;;;;1.60;0.57;;;22.00;52.30;;;;;;2096043;28;20025;-88
2022/08/28 13:34:39;;;;;;;0.53;0.40;;;22.00;52.30;;;;;;2090205;28;20463;-87
2022/08/28 13:35:41;;;;;;;2.22;0.70;;;22.10;52.50;;;;;;2090704;28;20142;-88
2022/08/28 13:36:48;;;;;;;0.65;0.50;;;22.10;52.60;;;;;;2088057;28;20099;-88
2022/08/28 13:37:55;;;;;;;1.65;0.63;;;22.00;53.10;;;;;;2102204;28;20143;-87
2022/08/28 13:38:56;;;;;;;1.60;0.68;;;22.10;52.90;;;;;;2105843;28;20113;-87
2022/08/28 13:39:56;;;;;;;0.57;0.50;;;22.10;53.20;;;;;;2089343;28;20269;-87
2022/08/28 13:41:01;;;;;;;2.50;0.80;;;22.10;53.30;;;;;;2094588;28;20044;-88
2022/08/28 13:42:14;;;;;;;1.20;0.50;;;22.10;52.80;;;;;;2084807;28;20083;-87
2022/08/28 13:43:16;;;;;;;2.45;0.55;;;22.10;52.60;;;;;;2096157;28;20123;-88
2022/08/28 13:44:22;;;;;;;;;;;22.10;52.30;;;;;;2088634;28;20029;-88
2022/08/28 13:45:22;;;;;;;1.77;0.60;;;22.10;52.70;;;;;;2092429;28;20335;-87
2022/08/28 13:46:23;;;;;;;0.87;0.50;;;22.10;53.40;;;;;;2096389;28;20067;-88
2022/08/28 13:47:24;;;;;;;1.73;0.50;;;22.10;53.80;;;;;;2088632;28;20075;-88
2022/08/28 13:48:26;;;;;;;1.08;0.70;;;22.10;54.20;;;;;;2093960;28;20040;-87
2022/08/28 13:49:27;;;;;;;1.02;0.43;;;22.10;54.30;;;;;;2098304;28;20024;-88
2022/08/28 13:50:28;;;;;;;0.88;0.60;;;22.20;54.40;;;;;;2091301;28;20099;-87
2022/08/28 13:51:29;;;;;;;1.90;0.60;;;22.20;54.50;;;;;;2102407;28;20029;-87
2022/08/28 13:52:30;;;;;;;0.50;0.50;;;22.20;54.60;;;;;;2090557;28;20032;-87
2022/08/28 13:53:31;;;;;;;1.57;0.50;;;22.10;54.30;;;;;;2083050;28;20029;-87
2022/08/28 13:54:31;;;;;;;1.87;0.90;;;22.20;54.30;;;;;;2092333;28;20182;-87
2022/08/28 13:55:32;;;;;;;0.73;0.47;;;22.20;53.50;;;;;;2089451;28;20111;-87
2022/08/28 13:56:33;;;;;;;0.90;0.60;;;22.20;54.00;;;;;;2091385;28;20074;-88
2022/08/28 13:57:34;;;;;;;0.77;0.50;;;22.20;53.50;;;;;;2083919;28;20067;-86
2022/08/28 13:58:35;;;;;;;2.00;0.63;;;22.20;53.90;;;;;;2098278;28;20028;-88
2022/08/28 13:59:36;;;;;;;1.67;0.77;;;22.20;53.60;;;;;;2098717;28;20746;-87
2022/08/28 14:00:42;;;;;;;3.00;0.60;;;22.20;53.60;;;;;;2083814;28;20029;-88
2022/08/28 14:04:23;;;;;;;1.33;0.65;;;22.30;52.20;;;;;;2108736;28;20453;-87
2022/08/28 14:05:25;;;;;;;1.30;0.50;;;22.30;51.80;;;;;;2100341;28;20042;-87
2022/08/28 14:06:25;;;;;;;1.30;0.57;;;22.30;51.50;;;;;;2102046;28;20474;-87
2022/08/28 14:07:28;;;;;;;0.53;0.50;;;22.30;51.20;;;;;;2108863;28;20066;-87
2022/08/28 14:08:29;;;;;;;4.00;0.63;;;22.30;51.60;;;;;;2095662;28;20071;-87
2022/08/28 14:09:30;;;;;;;1.55;0.65;;;22.30;51.80;;;;;;2090734;28;20041;-87
2022/08/28 14:10:31;;;;;;;2.00;0.80;;;22.30;52.30;;;;;;2082839;28;20539;-88
2022/08/28 14:11:33;;;;;;;1.48;0.70;;;22.30;51.80;;;;;;2095752;28;20021;-88
2022/08/28 14:12:33;;;;;;;0.40;0.40;;;22.30;51.40;;;;;;2117118;28;20442;-87
2022/08/28 14:13:34;;;;;;;2.33;0.83;;;22.30;52.40;;;;;;2103963;28;20039;-88
2022/08/28 14:14:36;;;;;;;1.33;0.67;;;22.30;52.00;;;;;;2100248;28;20024;-88
2022/08/28 14:15:37;;;;;;;;;;;22.30;52.00;;;;;;2099527;28;20417;-88
2022/08/28 14:16:38;;;;;;;1.13;0.50;;;22.30;52.10;;;;;;2093550;28;19909;-87
2022/08/28 14:17:39;;;;;;;0.50;0.40;;;22.30;52.50;;;;;;2092123;28;20086;-87
2022/08/28 14:18:39;;;;;;;0.93;0.50;;;22.30;51.90;;;;;;2092086;28;20104;-88
2022/08/28 14:19:41;;;;;;;0.43;0.40;;;22.30;51.70;;;;;;2100410;28;20036;-88
2022/08/28 14:20:41;;;;;;;1.50;0.50;;;22.30;51.50;;;;;;2084870;28;20459;-88
2022/08/28 14:21:42;;;;;;;1.10;0.57;;;22.30;51.00;;;;;;2083691;28;20025;-88
2022/08/28 14:22:43;;;;;;;1.10;0.70;;;22.30;50.90;;;;;;2082651;28;20201;-87
2022/08/28 14:23:44;;;;;;;1.30;0.67;;;22.20;51.10;;;;;;2091726;28;20060;-87
2022/08/28 14:24:45;;;;;;;2.57;0.70;;;22.30;51.20;;;;;;2091795;28;20037;-88
2022/08/28 14:25:47;;;;;;;2.15;0.80;;;22.30;51.80;;;;;;2100096;28;20061;-88
2022/08/28 14:26:48;;;;;;;1.23;0.52;;;22.30;52.00;;;;;;2091638;28;20025;-88
2022/08/28 14:27:49;;;;;;;2.08;0.73;;;22.30;51.60;;;;;;2083783;28;20033;-87
2022/08/28 14:28:50;;;;;;;2.70;0.73;;;22.30;51.20;;;;;;2082542;28;20115;-88
2022/08/28 14:29:52;;;;;;;2.17;0.63;;;22.30;51.30;;;;;;2100087;28;20025;-88
2022/08/28 14:30:52;;;;;;;1.38;0.75;;;22.30;51.10;;;;;;2093025;28;20033;-88
2022/08/28 14:31:53;;;;;;;1.13;0.50;;;22.30;50.70;;;;;;2091893;28;20120;-89
2022/08/28 14:32:54;;;;;;;1.40;0.67;;;22.30;50.60;;;;;;2091882;28;20458;-88
2022/08/28 14:33:58;;;;;;;1.40;0.50;;;22.30;50.70;;;;;;2091755;28;20025;-89
2022/08/28 14:35:00;;;;;;;1.67;0.80;;;22.30;51.00;;;;;;2092234;28;20075;-88
2022/08/28 14:36:00;;;;;;;2.00;0.68;;;22.40;50.60;;;;;;2089818;28;20017;-88
2022/08/28 14:37:01;;;;;;;1.43;0.80;;;22.30;50.80;;;;;;2098389;28;20073;-87
2022/08/28 14:38:02;;;;;;;2.40;0.60;;;22.30;51.40;;;;;;2100096;28;20032;-87
2022/08/28 14:39:05;;;;;;;1.50;0.70;;;22.30;51.80;;;;;;2091515;28;20032;-87
2022/08/28 14:40:06;;;;;;;1.88;0.50;;;22.40;52.10;;;;;;2083954;28;20136;-87
2022/08/28 14:41:07;;;;;;;1.05;0.55;;;22.40;51.50;;;;;;2091831;28;20124;-87
2022/08/28 14:42:08;;;;;;;2.03;0.70;;;22.40;52.10;;;;;;2099419;28;20040;-86
2022/08/28 14:43:10;;;;;;;1.20;0.77;;;22.40;52.30;;;;;;2100190;28;20039;-87
2022/08/28 14:44:11;;;;;;;;;;;22.40;52.40;;;;;;2096047;28;20036;-87
2022/08/28 14:45:12;;;;;;;7.10;0.70;;;22.40;51.90;;;;;;2083511;28;19956;-85
2022/08/28 14:46:18;;;;;;;1.70;0.90;;;22.40;50.90;;;;;;2098184;28;20459;-88
2022/08/28 14:47:19;;;;;;;3.38;1.00;;;22.30;51.00;;;;;;2105912;28;20028;-87
2022/08/28 14:48:20;;;;;;;0.90;0.60;;;22.40;51.50;;;;;;2091874;28;20378;-88
2022/08/28 14:49:21;;;;;;;1.50;0.67;;;22.40;50.50;;;;;;2103831;28;20043;-87
2022/08/28 14:50:22;;;;;;;;;;;22.40;50.50;;;;;;2100592;28;20094;-88
2022/08/28 14:51:23;;;;;;;1.67;1.20;;;22.40;50.10;;;;;;2095875;28;19931;-88
2022/08/28 14:52:25;;;;;;;4.15;1.25;;;22.40;50.00;;;;;;2100217;28;20335;-88
2022/08/28 14:53:26;;;;;;;2.30;0.70;;;22.40;50.20;;;;;;2093118;28;20095;-88
2022/08/28 14:54:26;;;;;;;1.77;0.70;;;22.40;49.60;;;;;;2091553;28;20455;-87
2022/08/28 14:55:27;;;;;;;3.70;0.70;;;22.40;50.10;;;;;;2090054;28;20025;-88
2022/08/28 14:56:29;;;;;;;3.20;0.70;;;22.40;50.00;;;;;;2093882;28;20025;-86
2022/08/28 14:57:29;;;;;;;2.42;0.63;;;22.40;49.50;;;;;;2094763;28;20024;-87
2022/08/28 14:58:32;;;;;;;2.50;0.90;;;22.40;49.40;;;;;;2090154;28;20117;-86
2022/08/28 14:59:33;;;;;;;1.75;0.60;;;22.40;49.70;;;;;;2096888;28;20415;-87
2022/08/28 15:00:38;;;;;;;0.90;0.60;;;22.40;50.00;;;;;;2108267;28;20099;-88
2022/08/28 15:01:40;;;;;;;2.10;0.75;;;22.40;49.40;;;;;;2100334;28;20029;-87
2022/08/28 15:02:40;;;;;;;5.28;1.00;;;22.40;49.50;;;;;;2099299;28;20081;-88
2022/08/28 15:03:41;;;;;;;1.37;0.93;;;22.50;49.50;;;;;;2091578;28;20060;-87
2022/08/28 15:04:42;;;;;;;1.53;0.83;;;22.40;49.90;;;;;;2083332;28;20057;-87
2022/08/28 15:05:43;;;;;;;1.90;0.77;;;22.50;50.00;;;;;;2077013;28;20030;-89
2022/08/28 15:06:44;;;;;;;1.90;1.00;;;22.50;49.60;;;;;;2087997;28;20033;-88
2022/08/28 15:07:45;;;;;;;2.37;0.90;;;22.40;49.60;;;;;;2098032;28;20034;-87
2022/08/28 15:08:46;;;;;;;1.97;0.93;;;22.50;50.00;;;;;;2108436;28;20310;-88
2022/08/28 15:09:47;;;;;;;1.60;0.70;;;22.50;49.90;;;;;;2095860;28;20132;-87
2022/08/28 15:10:49;;;;;;;1.05;0.60;;;22.50;50.50;;;;;;2091801;28;20033;-88
2022/08/28 15:11:51;;;;;;;1.23;0.50;;;22.50;51.50;;;;;;2091417;28;20092;-88
2022/08/28 15:12:51;;;;;;;1.50;0.70;;;22.50;51.70;;;;;;2091544;28;20024;-87
2022/08/28 15:13:53;;;;;;;1.50;0.70;;;22.50;51.80;;;;;;2099886;28;20020;-87
2022/08/28 15:14:54;;;;;;;1.30;0.60;;;22.50;51.60;;;;;;2099709;28;20032;-87
2022/08/28 15:16:11;;;;;;;1.30;0.60;;;22.50;50.70;;;;;;2090876;28;20051;-86
2022/08/28 15:17:12;;;;;;;1.27;0.80;;;22.40;50.40;;;;;;2091942;28;20025;-87
2022/08/28 15:18:13;;;;;;;0.80;0.70;;;22.50;50.40;;;;;;2087237;28;20025;-87
2022/08/28 15:19:16;;;;;;;0.77;0.70;;;22.50;50.00;;;;;;2091588;28;20138;-87
2022/08/28 15:20:17;;;;;;;1.58;0.90;;;22.50;49.80;;;;;;2091762;28;20033;-87